Boechout, Belgium
Current Conditions -  °F | °C
As of 11:20 AM on Friday 24 Oct 2014 (Local Time) from EBAW Reporting Station
Light Rain Light Rain  
Wind Chill: 54°   Ceiling: 3700
Heat Index: 54°   Visibility: 5mi
Dew Point: 48°   Wind: 12mph
Humidity: 82%   Direction: 200°SSW
Pressure: 30.09"   Gusts: NA
Location:  51.16°N, 4.49°E
Report Text: EBAW 240920Z 20010KT 8000 -RA FEW025 BKN037 12/09 Q1019 NOSIG
Loading
Personal Weather Stations






























Interactive Weather Map
Tropical Storm Tracking
New forecast layout! Learn more

10-Day Weather Forecast

Advertisements
Track Severe Weather on mobile